createdAt,value
2022-09-18T00:02:00.586Z,99.90
2022-09-18T00:04:28.018Z,99.90
2022-09-18T00:06:55.590Z,99.90
2022-09-18T00:09:23.265Z,99.90
2022-09-18T00:11:51.200Z,99.90
2022-09-18T00:14:24.563Z,99.90
2022-09-18T00:16:52.139Z,99.90
2022-09-18T00:19:21.023Z,99.90
2022-09-18T00:21:50.672Z,99.90
2022-09-18T00:24:18.869Z,99.90
2022-09-18T00:27:06.092Z,99.90
2022-09-18T00:29:33.394Z,99.90
2022-09-18T00:32:00.837Z,99.90
2022-09-18T00:34:28.363Z,99.90
2022-09-18T00:36:57.939Z,99.90
2022-09-18T00:39:25.409Z,99.90
2022-09-18T00:41:52.797Z,99.90
2022-09-18T00:44:38.526Z,99.90
2022-09-18T00:47:12.307Z,99.90
2022-09-18T00:50:07.004Z,99.90
2022-09-18T00:53:14.557Z,99.90
2022-09-18T00:56:05.412Z,99.90
2022-09-18T00:58:35.895Z,99.90
2022-09-18T01:01:14.398Z,99.90
2022-09-18T01:03:51.404Z,99.90
2022-09-18T01:06:46.260Z,99.90
2022-09-18T01:09:25.125Z,99.90
2022-09-18T01:12:35.998Z,99.90
2022-09-18T01:15:21.717Z,99.90
2022-09-18T01:18:13.713Z,99.90
2022-09-18T01:21:07.518Z,99.90
2022-09-18T01:23:34.726Z,99.90
2022-09-18T01:26:41.587Z,99.90
2022-09-18T01:29:15.973Z,99.90
2022-09-18T01:31:54.457Z,99.90
2022-09-18T01:34:37.334Z,99.90
2022-09-18T01:37:41.017Z,99.90
2022-09-18T01:40:40.900Z,99.90
2022-09-18T01:43:11.588Z,99.90
2022-09-18T01:45:49.429Z,99.90
2022-09-18T01:48:27.148Z,99.90
2022-09-18T01:51:22.266Z,99.90
2022-09-18T01:54:15.747Z,99.90
2022-09-18T01:56:57.222Z,99.90
2022-09-18T01:59:44.376Z,99.90
2022-09-18T02:02:22.751Z,99.90
2022-09-18T02:04:55.606Z,99.90
2022-09-18T02:07:36.490Z,99.90
2022-09-18T02:10:04.858Z,99.90
2022-09-18T02:12:33.478Z,99.90
2022-09-18T02:15:25.417Z,99.90
2022-09-18T02:18:08.381Z,99.90
2022-09-18T02:20:42.637Z,99.90
2022-09-18T02:23:14.349Z,99.90
2022-09-18T02:26:00.852Z,99.90
2022-09-18T02:28:38.545Z,99.90
2022-09-18T02:31:06.213Z,99.90
2022-09-18T02:33:39.334Z,99.90
2022-09-18T02:36:10.322Z,99.90
2022-09-18T02:39:08.405Z,99.90
2022-09-18T02:41:41.712Z,99.90
2022-09-18T02:44:32.770Z,99.90
2022-09-18T02:47:18.974Z,99.90
2022-09-18T02:50:24.260Z,99.90
2022-09-18T02:53:37.743Z,99.90
2022-09-18T02:56:38.451Z,99.90
2022-09-18T02:59:16.264Z,99.90
2022-09-18T03:01:49.291Z,99.90
2022-09-18T03:04:41.871Z,99.90
2022-09-18T03:07:14.736Z,99.90
2022-09-18T03:09:43.798Z,99.90
2022-09-18T03:12:13.109Z,99.90
2022-09-18T03:14:49.117Z,99.90
2022-09-18T03:17:20.984Z,99.90
2022-09-18T03:19:48.659Z,99.90
2022-09-18T03:22:25.778Z,99.90
2022-09-18T03:24:53.118Z,99.90
2022-09-18T03:27:22.165Z,99.90
2022-09-18T03:29:57.263Z,99.90
2022-09-18T03:32:25.324Z,99.90
2022-09-18T03:34:55.604Z,99.90
2022-09-18T03:37:43.292Z,99.90
2022-09-18T03:40:17.250Z,99.90
2022-09-18T03:42:44.904Z,99.90
2022-09-18T03:45:16.811Z,99.90
2022-09-18T03:47:52.385Z,99.90
2022-09-18T03:50:39.597Z,99.90
2022-09-18T03:53:27.099Z,99.90
2022-09-18T03:56:22.990Z,99.90
2022-09-18T03:59:03.654Z,99.90
2022-09-18T04:01:33.659Z,99.90
2022-09-18T04:04:19.534Z,99.90
2022-09-18T04:07:08.246Z,99.90
2022-09-18T04:09:41.366Z,99.90
2022-09-18T04:12:09.137Z,99.90
2022-09-18T04:14:56.370Z,99.90
2022-09-18T04:17:24.314Z,99.90
2022-09-18T04:19:53.781Z,99.90
2022-09-18T04:22:30.026Z,99.90
2022-09-18T04:24:57.430Z,99.90
2022-09-18T04:27:24.794Z,99.90
2022-09-18T04:29:56.894Z,99.90
2022-09-18T04:32:24.237Z,99.90
2022-09-18T04:34:51.655Z,99.90
2022-09-18T04:37:20.051Z,99.90
2022-09-18T04:39:49.913Z,99.90
2022-09-18T04:42:17.198Z,99.90
2022-09-18T04:44:46.241Z,99.90
2022-09-18T04:47:13.937Z,99.90
2022-09-18T04:50:01.800Z,99.90
2022-09-18T04:52:31.115Z,99.90
2022-09-18T04:54:58.430Z,99.90
2022-09-18T04:57:27.250Z,99.90
2022-09-18T04:59:54.600Z,99.90
2022-09-18T05:02:23.688Z,99.90
2022-09-18T05:04:52.545Z,99.90
2022-09-18T05:07:28.096Z,99.90
2022-09-18T05:09:55.629Z,99.90
2022-09-18T05:12:22.961Z,99.90
2022-09-18T05:14:50.289Z,99.90
2022-09-18T05:17:20.918Z,99.90
2022-09-18T05:20:08.347Z,99.90
2022-09-18T05:23:09.064Z,99.90
2022-09-18T05:25:52.035Z,99.90
2022-09-18T05:28:19.396Z,99.90
2022-09-18T05:33:51.275Z,99.90
2022-09-18T05:36:19.922Z,99.90
2022-09-18T05:38:48.578Z,99.90
2022-09-18T05:41:15.919Z,99.90
2022-09-18T05:43:45.048Z,99.90
2022-09-18T05:46:32.956Z,99.90
2022-09-18T05:49:12.810Z,99.90
2022-09-18T05:51:46.705Z,99.90
2022-09-18T05:54:20.127Z,99.90
2022-09-18T05:57:03.921Z,99.90
2022-09-18T05:59:37.308Z,99.90
2022-09-18T06:02:06.000Z,99.90
2022-09-18T06:04:53.104Z,99.90
2022-09-18T06:07:20.514Z,99.90
2022-09-18T06:09:50.442Z,99.90
2022-09-18T06:12:29.877Z,99.90
2022-09-18T06:14:57.202Z,99.90
2022-09-18T06:20:27.918Z,99.90
2022-09-18T06:23:08.113Z,99.90
2022-09-18T06:25:45.931Z,99.90
2022-09-18T06:28:13.772Z,99.90
2022-09-18T06:30:41.285Z,99.90
2022-09-18T06:33:11.222Z,99.90
2022-09-18T06:35:40.281Z,99.90
2022-09-18T06:58:35.026Z,99.90
2022-09-18T07:01:07.023Z,99.90
2022-09-18T07:03:40.380Z,99.90
2022-09-18T07:06:19.725Z,99.90
2022-09-18T07:08:49.500Z,99.90
2022-09-18T07:11:46.162Z,99.90
2022-09-18T07:17:23.170Z,99.90
2022-09-18T07:19:55.030Z,99.90
2022-09-18T07:22:47.475Z,99.90
2022-09-18T07:25:15.870Z,99.90
2022-09-18T07:27:46.227Z,99.90
2022-09-18T07:30:19.692Z,99.90
2022-09-18T07:32:47.684Z,99.90
2022-09-18T07:35:25.493Z,99.90
2022-09-18T07:38:02.622Z,99.90
2022-09-18T07:40:45.556Z,99.90
2022-09-18T07:43:42.412Z,99.90
2022-09-18T07:46:32.349Z,99.90
2022-09-18T07:49:03.978Z,99.90
2022-09-18T07:51:31.357Z,99.90
2022-09-18T07:54:00.002Z,99.90
2022-09-18T07:56:57.447Z,99.90
2022-09-18T07:59:28.870Z,99.90
2022-09-18T08:02:00.094Z,99.90
2022-09-18T08:04:30.435Z,99.90
2022-09-18T08:07:21.310Z,99.90
2022-09-18T08:10:02.992Z,99.90
2022-09-18T08:12:42.619Z,99.90
2022-09-18T08:27:28.826Z,99.90
2022-09-18T08:30:06.632Z,99.90
2022-09-18T08:32:34.461Z,99.90
2022-09-18T08:35:04.202Z,99.90
2022-09-18T08:37:32.704Z,99.90
2022-09-18T08:41:08.951Z,99.90
2022-09-18T08:43:52.229Z,99.90
2022-09-18T08:46:32.022Z,99.90
2022-09-18T08:49:24.005Z,99.90
2022-09-18T08:52:18.506Z,99.90
2022-09-18T08:55:04.852Z,99.90
2022-09-18T08:58:15.958Z,99.90
2022-09-18T09:00:55.122Z,99.90
2022-09-18T09:03:51.746Z,99.90
2022-09-18T09:07:01.370Z,99.90
2022-09-18T09:09:54.826Z,99.90
2022-09-18T09:12:50.088Z,99.90
2022-09-18T09:15:31.306Z,99.90
2022-09-18T09:18:33.860Z,99.90
2022-09-18T09:21:24.790Z,99.90
2022-09-18T09:24:03.939Z,99.90
2022-09-18T09:26:50.745Z,99.90
2022-09-18T09:29:39.398Z,99.90
2022-09-18T09:32:25.939Z,99.90
2022-09-18T09:35:37.072Z,99.90
2022-09-18T09:38:34.981Z,99.90
2022-09-18T09:41:17.983Z,99.90
2022-09-18T09:44:06.302Z,99.90
2022-09-18T09:47:11.510Z,99.90
2022-09-18T09:49:41.927Z,99.90
2022-09-18T09:52:26.225Z,99.90
2022-09-18T09:55:15.218Z,99.90
2022-09-18T09:58:08.772Z,99.90
2022-09-18T10:00:51.216Z,99.90
2022-09-18T10:03:52.017Z,99.90
2022-09-18T10:06:28.554Z,99.90
2022-09-18T10:09:23.825Z,99.90
2022-09-18T10:12:25.725Z,99.90
2022-09-18T10:15:18.326Z,99.90
2022-09-18T10:17:49.785Z,99.90
2022-09-18T10:20:26.435Z,99.90
2022-09-18T10:22:55.181Z,99.90
2022-09-18T10:25:28.410Z,99.90
2022-09-18T10:27:55.905Z,99.40
2022-09-18T10:30:23.168Z,99.90
2022-09-18T10:32:55.130Z,99.50
2022-09-18T10:35:31.196Z,99.20
2022-09-18T10:38:03.332Z,97.90
2022-09-18T10:40:43.441Z,97.40
2022-09-18T10:43:18.984Z,97.40
2022-09-18T10:45:55.906Z,96.90
2022-09-18T10:48:44.541Z,97.60
2022-09-18T10:51:25.821Z,96.90
2022-09-18T10:54:17.965Z,97.00
2022-09-18T10:56:56.439Z,95.80
2022-09-18T10:59:32.454Z,94.30
2022-09-18T11:02:02.570Z,94.10
2022-09-18T11:04:32.192Z,93.90
2022-09-18T11:07:03.151Z,93.30
2022-09-18T11:09:38.968Z,92.50
2022-09-18T11:12:24.195Z,91.40
2022-09-18T11:15:04.264Z,76.30
2022-09-18T11:17:35.112Z,58.10
2022-09-18T11:20:06.274Z,51.50
2022-09-18T11:22:54.353Z,45.40
2022-09-18T11:25:28.349Z,41.60
2022-09-18T11:28:39.548Z,39.30
2022-09-18T11:31:17.936Z,38.50
2022-09-18T11:33:53.900Z,37.90
2022-09-18T11:36:32.597Z,38.30
2022-09-18T11:39:12.605Z,39.10
2022-09-18T11:41:41.301Z,42.40
2022-09-18T11:44:25.293Z,45.70
2022-09-18T11:47:16.209Z,49.50
2022-09-18T11:50:04.906Z,52.50
2022-09-18T11:52:42.361Z,55.50
2022-09-18T11:55:33.885Z,58.30
2022-09-18T11:58:32.904Z,59.70
2022-09-18T12:01:37.530Z,62.30
2022-09-18T12:04:26.638Z,62.20
2022-09-18T12:07:06.353Z,63.70
2022-09-18T12:09:59.771Z,67.30
2022-09-18T12:13:14.551Z,66.30
2022-09-18T12:16:04.092Z,66.30
2022-09-18T12:18:53.316Z,69.80
2022-09-18T12:21:47.175Z,68.50
2022-09-18T12:24:22.265Z,67.90
2022-09-18T12:27:31.205Z,70.70
2022-09-18T12:30:20.245Z,68.60
2022-09-18T12:33:08.269Z,70.30
2022-09-18T12:35:47.785Z,65.50
2022-09-18T12:39:13.869Z,70.00
2022-09-18T12:42:32.946Z,67.20
2022-09-18T12:45:50.145Z,64.00
2022-09-18T12:48:57.879Z,63.80
2022-09-18T12:51:34.169Z,62.70
2022-09-18T12:54:43.658Z,61.80
2022-09-18T12:57:32.980Z,62.30
2022-09-18T13:00:05.450Z,60.50
2022-09-18T13:02:38.499Z,58.90
2022-09-18T13:05:12.576Z,60.60
2022-09-18T13:08:13.860Z,59.20
2022-09-18T13:10:47.017Z,59.30
2022-09-18T13:13:21.856Z,59.40
2022-09-18T13:15:56.640Z,57.80
2022-09-18T13:19:18.018Z,58.70
2022-09-18T13:21:46.770Z,59.30
2022-09-18T13:24:19.780Z,61.50
2022-09-18T13:26:49.701Z,58.30
2022-09-18T13:29:50.769Z,59.50
2022-09-18T13:32:40.802Z,62.60
2022-09-18T13:35:14.157Z,63.10
2022-09-18T13:37:43.217Z,60.30
2022-09-18T13:40:29.516Z,63.10
2022-09-18T13:42:57.969Z,60.70
2022-09-18T13:45:30.398Z,62.20
2022-09-18T13:48:23.862Z,63.80
2022-09-18T13:51:20.178Z,59.10
2022-09-18T13:53:47.465Z,58.20
2022-09-18T13:56:16.970Z,59.50
2022-09-18T13:58:55.751Z,61.10
2022-09-18T14:01:41.330Z,59.20
2022-09-18T14:04:39.721Z,58.80
2022-09-18T14:07:19.749Z,57.20
2022-09-18T14:10:03.600Z,58.10
2022-09-18T14:12:35.571Z,59.20
2022-09-18T14:15:20.735Z,58.20
2022-09-18T14:18:15.339Z,56.60
2022-09-18T14:20:55.056Z,59.20
2022-09-18T14:23:34.577Z,56.80
2022-09-18T14:26:07.493Z,56.80
2022-09-18T14:28:36.416Z,58.60
2022-09-18T14:31:31.452Z,55.60
2022-09-18T14:34:27.575Z,60.10
2022-09-18T14:37:03.585Z,56.30
2022-09-18T14:39:36.209Z,57.20
2022-09-18T14:42:32.679Z,57.80
2022-09-18T14:45:31.341Z,57.20
2022-09-18T14:47:59.504Z,57.20
2022-09-18T14:50:38.758Z,55.50
2022-09-18T14:53:47.195Z,55.60
2022-09-18T14:56:18.157Z,57.10
2022-09-18T14:58:50.438Z,59.30
2022-09-18T15:01:23.547Z,58.40
2022-09-18T15:03:52.529Z,58.60
2022-09-18T15:06:27.674Z,55.60
2022-09-18T15:08:56.692Z,56.40
2022-09-18T15:11:32.107Z,56.30
2022-09-18T15:14:41.515Z,54.50
2022-09-18T15:17:17.781Z,55.90
2022-09-18T15:20:00.495Z,56.90
2022-09-18T15:22:29.287Z,55.20
2022-09-18T15:25:00.839Z,55.70
2022-09-18T15:27:33.644Z,57.50
2022-09-18T15:30:15.023Z,55.50
2022-09-18T15:32:52.289Z,56.10
2022-09-18T15:35:26.369Z,57.30
2022-09-18T15:38:03.060Z,56.80
2022-09-18T15:40:54.765Z,55.60
2022-09-18T15:43:41.177Z,56.50
2022-09-18T15:46:15.156Z,57.40
2022-09-18T15:49:03.704Z,56.40
2022-09-18T15:51:36.273Z,57.00
2022-09-18T15:54:12.183Z,56.10
2022-09-18T15:56:58.508Z,57.20
2022-09-18T15:59:28.905Z,57.90
2022-09-18T16:01:58.662Z,59.50
2022-09-18T16:04:33.640Z,59.70
2022-09-18T16:07:07.037Z,59.50
2022-09-18T16:09:44.946Z,60.50
2022-09-18T16:12:38.654Z,60.80
2022-09-18T16:15:41.154Z,60.60
2022-09-18T16:18:27.452Z,61.10
2022-09-18T16:20:55.077Z,61.10
2022-09-18T16:23:50.264Z,61.70
2022-09-18T16:26:27.957Z,61.20
2022-09-18T16:29:17.089Z,62.90
2022-09-18T16:31:45.691Z,64.50
2022-09-18T16:34:27.571Z,62.40
2022-09-18T16:36:56.081Z,61.00
2022-09-18T16:39:25.543Z,62.50
2022-09-18T16:41:53.677Z,62.30
2022-09-18T16:44:20.968Z,64.40
2022-09-18T16:46:59.322Z,62.80
2022-09-18T16:49:47.826Z,64.00
2022-09-18T16:52:42.360Z,63.90
2022-09-18T16:55:09.711Z,66.30
2022-09-18T16:57:37.252Z,66.20
2022-09-18T17:00:10.617Z,65.70
2022-09-18T17:02:38.085Z,66.30
2022-09-18T17:05:09.355Z,66.50
2022-09-18T17:07:36.778Z,67.20
2022-09-18T17:10:05.434Z,67.70
2022-09-18T17:12:32.816Z,66.70
2022-09-18T17:15:00.168Z,67.10
2022-09-18T17:17:27.580Z,67.80
2022-09-18T17:19:59.274Z,68.00
2022-09-18T17:22:26.731Z,68.50
2022-09-18T17:24:54.210Z,68.30
2022-09-18T17:27:22.072Z,68.10
2022-09-18T17:29:52.835Z,71.60
2022-09-18T17:32:20.167Z,73.40
2022-09-18T17:34:47.712Z,74.60
2022-09-18T17:37:15.192Z,75.70
2022-09-18T17:39:42.469Z,73.30
2022-09-18T17:42:09.820Z,75.30
2022-09-18T17:44:37.256Z,76.40
2022-09-18T17:47:04.749Z,77.00
2022-09-18T17:49:32.651Z,78.00
2022-09-18T17:52:00.321Z,76.50
2022-09-18T17:54:28.915Z,75.20
2022-09-18T17:56:56.243Z,76.80
2022-09-18T17:59:23.751Z,77.80
2022-09-18T18:01:51.267Z,73.00
2022-09-18T18:04:20.137Z,75.60
2022-09-18T18:06:49.357Z,77.90
2022-09-18T18:09:17.190Z,77.10
2022-09-18T18:11:46.121Z,75.30
2022-09-18T18:14:14.612Z,76.20
2022-09-18T18:16:42.201Z,79.60
2022-09-18T18:19:12.993Z,81.90
2022-09-18T18:21:42.569Z,81.70
2022-09-18T18:24:23.868Z,80.70
2022-09-18T18:27:11.267Z,80.80
2022-09-18T18:29:39.411Z,83.00
2022-09-18T18:32:06.952Z,82.50
2022-09-18T18:34:34.256Z,83.00
2022-09-18T18:37:02.931Z,83.00
2022-09-18T18:39:30.280Z,82.90
2022-09-18T18:41:57.545Z,83.60
2022-09-18T18:44:24.966Z,84.30
2022-09-18T18:46:52.427Z,83.60
2022-09-18T18:49:19.818Z,86.60
2022-09-18T18:52:14.615Z,87.90
2022-09-18T18:54:45.901Z,86.50
2022-09-18T18:57:13.225Z,86.50
2022-09-18T18:59:40.806Z,86.10
2022-09-18T19:02:09.046Z,87.90
2022-09-18T19:04:45.875Z,87.90
2022-09-18T19:07:13.122Z,88.10
2022-09-18T19:09:40.455Z,87.40
2022-09-18T19:12:07.749Z,87.90
2022-09-18T19:14:38.026Z,87.30
2022-09-18T19:17:05.640Z,86.20
2022-09-18T19:19:32.921Z,85.10
2022-09-18T19:22:00.220Z,85.80
2022-09-18T19:24:29.947Z,86.10
2022-09-18T19:26:58.853Z,85.30
2022-09-18T19:29:26.397Z,84.20
2022-09-18T19:31:53.748Z,84.80
2022-09-18T19:34:22.160Z,85.30
2022-09-18T19:36:52.024Z,86.90
2022-09-18T19:39:21.290Z,87.40
2022-09-18T19:42:18.710Z,87.30
2022-09-18T19:44:59.129Z,88.80
2022-09-18T19:47:54.357Z,87.00
2022-09-18T19:50:33.190Z,88.10
2022-09-18T19:53:02.744Z,88.80
2022-09-18T19:55:30.378Z,89.50
2022-09-18T19:57:59.256Z,89.90
2022-09-18T20:00:26.827Z,90.10
2022-09-18T20:03:01.320Z,89.50
2022-09-18T20:05:28.612Z,89.90
2022-09-18T20:07:55.943Z,89.80
2022-09-18T20:10:24.031Z,89.20
2022-09-18T20:13:11.381Z,89.10
2022-09-18T20:15:39.975Z,89.60
2022-09-18T20:18:07.760Z,89.10
2022-09-18T20:20:37.466Z,88.00
2022-09-18T20:23:07.395Z,88.90
2022-09-18T20:25:35.585Z,89.70
2022-09-18T20:28:03.467Z,89.30
2022-09-18T20:30:30.739Z,88.70
2022-09-18T20:32:58.077Z,89.00
2022-09-18T20:35:25.433Z,88.70
2022-09-18T20:37:53.256Z,88.00
2022-09-18T20:40:20.597Z,87.80
2022-09-18T20:42:52.030Z,88.20
2022-09-18T20:45:19.704Z,88.40
2022-09-18T20:47:47.308Z,88.00
2022-09-18T20:50:16.425Z,86.80
2022-09-18T20:52:44.107Z,86.80
2022-09-18T20:55:15.753Z,87.60
2022-09-18T20:57:44.893Z,86.40
2022-09-18T21:00:18.090Z,87.20
2022-09-18T21:02:51.006Z,87.30
2022-09-18T21:05:22.370Z,86.50
2022-09-18T21:08:01.153Z,87.00
2022-09-18T21:10:29.567Z,86.50
2022-09-18T21:12:58.761Z,86.80
2022-09-18T21:15:26.142Z,85.30
2022-09-18T21:17:53.695Z,86.50
2022-09-18T21:20:21.087Z,86.50
2022-09-18T21:23:07.848Z,86.30
2022-09-18T21:25:35.459Z,88.30
2022-09-18T21:28:05.958Z,88.40
2022-09-18T21:30:33.272Z,88.40
2022-09-18T21:33:01.800Z,88.70
2022-09-18T21:35:29.067Z,88.40
2022-09-18T21:37:57.917Z,89.60
2022-09-18T21:40:25.297Z,89.70
2022-09-18T21:42:56.021Z,88.90
2022-09-18T21:45:23.787Z,87.70
2022-09-18T21:47:51.074Z,87.30
2022-09-18T21:50:22.704Z,87.60
2022-09-18T21:52:49.949Z,88.00
2022-09-18T21:55:17.633Z,89.40
2022-09-18T21:57:44.874Z,90.00
2022-09-18T22:00:12.756Z,88.60
2022-09-18T22:02:41.033Z,88.10
2022-09-18T22:05:11.576Z,90.10
2022-09-18T22:07:39.178Z,90.20
2022-09-18T22:10:08.068Z,89.40
2022-09-18T22:12:39.173Z,89.90
2022-09-18T22:15:06.988Z,88.90
2022-09-18T22:17:34.310Z,88.20
2022-09-18T22:20:01.773Z,88.50
2022-09-18T22:22:32.003Z,88.90
2022-09-18T22:25:02.241Z,90.70
2022-09-18T22:27:29.572Z,90.90
2022-09-18T22:29:56.871Z,90.60
2022-09-18T22:32:24.127Z,90.40
2022-09-18T22:34:53.849Z,90.30
2022-09-18T22:38:38.866Z,90.20
2022-09-18T22:41:58.388Z,90.10
2022-09-18T22:44:26.832Z,89.90
2022-09-18T22:46:54.251Z,89.70
2022-09-18T22:49:23.434Z,88.90
2022-09-18T22:51:59.437Z,88.40
2022-09-18T22:54:29.217Z,89.60
2022-09-18T22:57:18.858Z,89.60
2022-09-18T22:59:48.007Z,90.30
2022-09-18T23:02:15.335Z,89.70
2022-09-18T23:04:46.953Z,89.70
2022-09-18T23:07:17.846Z,89.80
2022-09-18T23:09:45.817Z,90.60
2022-09-18T23:12:13.085Z,90.60
2022-09-18T23:14:40.340Z,90.10
2022-09-18T23:17:11.218Z,90.00
2022-09-18T23:19:44.175Z,91.00
2022-09-18T23:22:12.410Z,91.40
2022-09-18T23:24:39.711Z,91.20
2022-09-18T23:27:07.038Z,90.70
2022-09-18T23:29:35.407Z,91.00
2022-09-18T23:32:05.996Z,90.60
2022-09-18T23:34:33.747Z,90.20
2022-09-18T23:37:01.773Z,91.00
2022-09-18T23:39:33.841Z,91.80
2022-09-18T23:42:06.761Z,92.00
2022-09-18T23:44:35.914Z,92.50
2022-09-18T23:47:12.040Z,92.10
2022-09-18T23:49:46.604Z,92.30
2022-09-18T23:52:13.944Z,91.70
2022-09-18T23:54:44.065Z,91.80
2022-09-18T23:57:11.300Z,92.30
2022-09-18T23:59:39.880Z,92.40
